메인 페이지
METAR-TAF:

METAR-TAF

공항 :

Elmira / 코닝, 뉴욕, 미국

위도: 42-09-23N, 경도: 076-54-10W, 고도: 291m

현재 날씨관측

예보는 24분 전, 06:53시(UTC)에 발표되었습니다.
12kt, 순간 최대 풍속 19kt
온도 15°C
습도 67%
기압 1015 hPa
시정: 16.1km
고도 3100ft 상공 구름 많음

METAR: KELM 220653Z AUTO 17012G19KT 10SM BKN031 15/09 A2997 RMK AO2 SLP148 T01500094

시각: 03:17 (07:17 UTC)

예보

예보는 1 시간 35분 전, 05:42시(UTC)에 발표되었습니다.
예보 대상 시간: 22일 06시부터 23일 06시까지 (UTC)
9kt
시정: 10km
고도 3000ft 상공 구름 보통
고도 18000ft 상공 흐림
22일 1100시부터 (UTC)
10kt, 순간 최대 풍속 18kt
시정: 10km
고도 1800ft 상공 구름 조금
고도 2500ft 상공 구름 보통
고도 6000ft 상공 구름 많음
22일 1800시부터 (UTC)
8kt
시정: 10km
고도 2100ft 상공 구름 많음
고도 3500ft 상공 흐림
약한소나기
22일 2000시부터 (UTC)
남남서6kt
시정: 8.0km
고도 1800ft 상공 흐림
비, 박무
23일 0200시부터 (UTC)
서남서4kt
시정: 10km
고도 3000ft 상공 구름 보통
고도 5000ft 상공 구름 많음

TAF: KELM 220542Z 2206/2306 17009KT P6SM SCT030 OVC180 WS020/18040KT FM221100 17010G18KT P6SM FEW018 SCT025 BKN060 FM221800 18008KT P6SM -SHRA BKN021 OVC035 FM222000 21006KT 5SM RA BR OVC018 FM230200 25004KT P6SM SCT030 BKN050

4,000개 이상의 공항 관측 자료 및 예보 (METAR 및 TAF 보고).

지도상에서 검색 가능한 기상관측소가 노란 점과 빨간 점으로 표시되어 있습니다.

기상관측소 명을 보려면 표시 위로 마우스를 이동하세요.

날씨 관측과 예보를 보려면 클릭하세요.

지도 변경 : 확대하려면 엑스 표시가 있는 녹색 버튼, 축소하려면 빼기 표시가 있는 녹색 버튼, 다음 페이지의 지도를 보려면 녹색 화살표를 클릭하세요.


METAR-TAF: